createdAt,value
2023-05-06T00:01:39.400Z,126.07
2023-05-06T00:04:08.015Z,127.57
2023-05-06T00:06:36.150Z,127.47
2023-05-06T00:09:05.620Z,130.17
2023-05-06T00:11:33.772Z,130.83
2023-05-06T00:14:01.906Z,131.20
2023-05-06T00:16:29.869Z,128.13
2023-05-06T00:18:57.993Z,127.37
2023-05-06T00:21:27.109Z,131.93
2023-05-06T00:23:55.103Z,129.27
2023-05-06T00:26:24.553Z,127.70
2023-05-06T00:28:52.621Z,127.10
2023-05-06T00:31:20.764Z,128.00
2023-05-06T00:33:48.857Z,129.57
2023-05-06T00:36:17.502Z,130.97
2023-05-06T00:38:45.710Z,131.60
2023-05-06T00:41:13.820Z,129.00
2023-05-06T00:43:43.235Z,129.70
2023-05-06T00:46:12.071Z,127.87
2023-05-06T00:48:40.701Z,128.13
2023-05-06T00:51:09.362Z,125.40
2023-05-06T00:53:38.048Z,127.87
2023-05-06T00:56:06.456Z,127.63
2023-05-06T00:58:35.434Z,128.43
2023-05-06T01:01:04.945Z,125.53
2023-05-06T01:03:33.157Z,122.77
2023-05-06T01:06:12.514Z,124.70
2023-05-06T01:08:46.779Z,123.77
2023-05-06T01:11:21.595Z,127.60
2023-05-06T01:13:57.340Z,128.80
2023-05-06T01:16:30.871Z,127.40
2023-05-06T01:19:01.271Z,127.87
2023-05-06T01:21:34.950Z,128.33
2023-05-06T01:24:04.589Z,129.47
2023-05-06T01:26:32.674Z,129.70
2023-05-06T01:29:02.073Z,130.67
2023-05-06T01:31:39.261Z,130.87
2023-05-06T01:34:15.205Z,127.90
2023-05-06T01:36:49.456Z,127.93
2023-05-06T01:39:21.385Z,129.10
2023-05-06T01:41:51.197Z,130.63
2023-05-06T01:44:23.344Z,126.57
2023-05-06T01:46:52.637Z,125.70
2023-05-06T01:49:23.190Z,120.53
2023-05-06T01:51:53.607Z,124.73
2023-05-06T01:54:23.060Z,125.40
2023-05-06T01:56:51.070Z,124.03
2023-05-06T01:59:19.243Z,124.70
2023-05-06T02:01:47.358Z,126.00
2023-05-06T02:04:16.162Z,128.27
2023-05-06T02:06:44.217Z,129.93
2023-05-06T02:09:12.279Z,127.90
2023-05-06T02:11:41.684Z,131.43
2023-05-06T02:14:09.799Z,134.07
2023-05-06T02:16:37.814Z,133.40
2023-05-06T02:19:06.342Z,131.30
2023-05-06T02:21:34.375Z,132.33
2023-05-06T02:24:02.504Z,131.83
2023-05-06T02:26:30.661Z,134.60
2023-05-06T02:29:00.041Z,133.37
2023-05-06T02:31:28.139Z,132.53
2023-05-06T02:33:56.283Z,130.30
2023-05-06T02:36:24.325Z,130.10
2023-05-06T02:38:52.401Z,131.57
2023-05-06T02:41:20.694Z,133.40
2023-05-06T02:43:48.772Z,133.17
2023-05-06T02:46:18.333Z,134.73
2023-05-06T02:48:46.444Z,132.97
2023-05-06T02:51:14.502Z,129.93
2023-05-06T02:53:42.595Z,132.23
2023-05-06T02:56:10.654Z,129.87
2023-05-06T02:58:38.763Z,129.90
2023-05-06T03:01:06.875Z,127.83
2023-05-06T03:03:36.442Z,127.77
2023-05-06T03:06:04.654Z,130.03
2023-05-06T03:08:32.814Z,125.83
2023-05-06T03:11:00.944Z,127.97
2023-05-06T03:13:29.007Z,128.90
2023-05-06T03:15:57.252Z,128.57
2023-05-06T03:18:25.387Z,127.20
2023-05-06T03:20:54.772Z,127.37
2023-05-06T03:23:22.834Z,127.60
2023-05-06T03:25:50.878Z,127.40
2023-05-06T03:28:18.960Z,128.33
2023-05-06T03:30:47.085Z,125.73
2023-05-06T03:33:15.118Z,127.47
2023-05-06T03:35:43.196Z,131.33
2023-05-06T03:38:12.605Z,129.60
2023-05-06T03:40:40.840Z,126.50
2023-05-06T03:43:09.010Z,132.23
2023-05-06T03:45:37.947Z,131.47
2023-05-06T03:48:06.414Z,124.50
2023-05-06T03:50:34.672Z,127.23
2023-05-06T03:53:02.801Z,124.63
2023-05-06T03:55:32.279Z,125.77
2023-05-06T03:58:00.405Z,125.63
2023-05-06T04:00:28.585Z,126.40
2023-05-06T04:02:56.767Z,127.40
2023-05-06T04:05:24.924Z,131.90
2023-05-06T04:07:53.024Z,130.67
2023-05-06T04:10:21.442Z,130.13
2023-05-06T04:12:51.082Z,130.97
2023-05-06T04:15:19.487Z,126.83
2023-05-06T04:17:47.693Z,120.83
2023-05-06T04:20:16.157Z,126.30
2023-05-06T04:22:44.255Z,122.17
2023-05-06T04:25:13.169Z,122.27
2023-05-06T04:27:41.426Z,123.43
2023-05-06T04:30:12.176Z,127.03
2023-05-06T04:32:40.526Z,123.43
2023-05-06T04:35:10.127Z,124.37
2023-05-06T04:37:38.406Z,123.67
2023-05-06T04:40:07.670Z,123.63
2023-05-06T04:42:35.745Z,127.00
2023-05-06T04:45:04.056Z,129.67
2023-05-06T04:47:33.563Z,132.73
2023-05-06T04:50:01.677Z,137.47
2023-05-06T04:52:30.226Z,135.77
2023-05-06T04:54:58.297Z,138.87
2023-05-06T04:57:26.511Z,139.90
2023-05-06T04:59:54.651Z,143.80
2023-05-06T05:02:22.832Z,146.57
2023-05-06T05:04:52.340Z,141.93
2023-05-06T05:07:20.419Z,148.17
2023-05-06T05:09:48.460Z,148.87
2023-05-06T05:12:16.536Z,148.33
2023-05-06T05:14:44.594Z,152.20
2023-05-06T05:17:12.754Z,147.50
2023-05-06T05:19:40.994Z,149.87
2023-05-06T05:22:10.372Z,149.93
2023-05-06T05:24:38.790Z,146.43
2023-05-06T05:27:07.535Z,141.50
2023-05-06T05:29:35.626Z,138.30
2023-05-06T05:32:03.878Z,138.77
2023-05-06T05:34:32.652Z,138.67
2023-05-06T05:37:00.814Z,138.13
2023-05-06T05:39:30.309Z,139.30
2023-05-06T05:41:58.438Z,137.70
2023-05-06T05:44:26.516Z,134.63
2023-05-06T05:46:54.673Z,133.77
2023-05-06T05:49:22.742Z,135.07
2023-05-06T05:51:50.787Z,140.33
2023-05-06T05:54:18.920Z,145.80
2023-05-06T05:56:48.296Z,152.00
2023-05-06T05:59:16.430Z,147.93
2023-05-06T06:01:44.938Z,145.17
2023-05-06T06:04:13.052Z,150.00
2023-05-06T06:06:41.257Z,146.37
2023-05-06T06:09:10.338Z,149.67
2023-05-06T06:11:38.574Z,149.33
2023-05-06T06:14:08.134Z,151.50
2023-05-06T06:16:37.961Z,151.80
2023-05-06T06:19:06.492Z,154.43
2023-05-06T06:21:34.567Z,154.47
2023-05-06T06:24:02.664Z,154.27
2023-05-06T06:26:30.801Z,151.97
2023-05-06T06:28:58.867Z,152.10
2023-05-06T06:31:29.341Z,151.80
2023-05-06T06:33:57.489Z,147.37
2023-05-06T06:36:25.564Z,143.10
2023-05-06T06:38:53.584Z,147.27
2023-05-06T06:41:22.593Z,145.70
2023-05-06T06:43:50.690Z,143.07
2023-05-06T06:46:18.955Z,145.30
2023-05-06T06:48:49.018Z,142.67
2023-05-06T06:51:17.101Z,144.97
2023-05-06T06:53:48.271Z,139.63
2023-05-06T06:56:16.853Z,136.20
2023-05-06T06:58:45.103Z,139.43
2023-05-06T07:01:13.726Z,139.20
2023-05-06T07:03:42.139Z,134.70
2023-05-06T07:06:11.653Z,130.97
2023-05-06T07:08:39.669Z,133.93
2023-05-06T07:11:07.739Z,139.17
2023-05-06T07:13:35.889Z,128.00
2023-05-06T07:16:03.930Z,121.90
2023-05-06T07:18:31.975Z,119.47
2023-05-06T07:21:00.051Z,107.33
2023-05-06T07:23:31.133Z,108.67
2023-05-06T07:26:00.543Z,101.77
2023-05-06T07:28:28.638Z,95.80
2023-05-06T07:30:56.772Z,102.00
2023-05-06T07:33:24.982Z,96.30
2023-05-06T07:35:54.263Z,80.50
2023-05-06T07:38:22.934Z,70.07
2023-05-06T07:40:52.995Z,61.07
2023-05-06T07:43:23.524Z,54.10
2023-05-06T07:45:51.832Z,53.10
2023-05-06T07:48:20.394Z,48.23
2023-05-06T07:50:48.591Z,50.77
2023-05-06T07:53:16.626Z,51.83
2023-05-06T07:55:44.736Z,45.50
2023-05-06T07:58:14.221Z,38.40
2023-05-06T08:00:42.331Z,36.17
2023-05-06T08:03:10.470Z,35.57
2023-05-06T08:05:38.535Z,33.23
2023-05-06T08:08:06.783Z,34.10
2023-05-06T08:10:35.032Z,34.30
2023-05-06T08:13:03.255Z,33.57
2023-05-06T08:15:32.788Z,31.97
2023-05-06T08:18:13.846Z,29.50
2023-05-06T08:20:48.917Z,26.57
2023-05-06T08:23:16.959Z,26.20
2023-05-06T08:25:45.055Z,26.10
2023-05-06T08:28:13.122Z,26.47
2023-05-06T08:30:42.555Z,26.80
2023-05-06T08:33:10.903Z,27.73
2023-05-06T08:35:38.966Z,27.47
2023-05-06T08:38:07.059Z,27.60
2023-05-06T08:40:35.413Z,26.90
2023-05-06T08:43:05.478Z,24.30
2023-05-06T08:45:34.062Z,25.00
2023-05-06T08:48:03.674Z,25.03
2023-05-06T08:50:31.825Z,24.23
2023-05-06T08:53:00.987Z,23.87
2023-05-06T08:55:29.365Z,23.90
2023-05-06T08:57:58.377Z,23.80
2023-05-06T09:00:26.773Z,24.00
2023-05-06T09:02:54.901Z,22.40
2023-05-06T09:05:24.397Z,22.33
2023-05-06T09:07:52.729Z,21.03
2023-05-06T09:10:20.805Z,21.33
2023-05-06T09:12:48.864Z,20.50
2023-05-06T09:15:16.997Z,20.77
2023-05-06T09:17:45.232Z,20.43
2023-05-06T09:20:13.810Z,19.70
2023-05-06T09:22:43.431Z,21.33
2023-05-06T09:25:12.202Z,19.50
2023-05-06T09:27:41.182Z,19.00
2023-05-06T09:30:11.965Z,19.67
2023-05-06T09:32:40.901Z,20.53
2023-05-06T09:35:10.636Z,20.17
2023-05-06T09:37:39.541Z,19.93
2023-05-06T09:40:10.983Z,18.27
2023-05-06T09:42:39.326Z,19.57
2023-05-06T09:45:10.206Z,18.90
2023-05-06T09:47:39.038Z,19.23
2023-05-06T09:50:09.930Z,19.47
2023-05-06T09:52:38.668Z,18.77
2023-05-06T09:55:10.111Z,18.87
2023-05-06T09:57:38.960Z,18.77
2023-05-06T10:00:13.243Z,18.83
2023-05-06T10:02:42.202Z,19.50
2023-05-06T10:05:12.580Z,18.00
2023-05-06T10:07:41.879Z,19.03
2023-05-06T10:10:13.048Z,19.23
2023-05-06T10:12:41.468Z,17.80
2023-05-06T10:15:10.952Z,18.40
2023-05-06T10:17:41.005Z,18.67
2023-05-06T10:20:14.598Z,17.90
2023-05-06T10:22:53.433Z,17.97
2023-05-06T10:25:32.935Z,18.13
2023-05-06T10:28:01.566Z,18.37
2023-05-06T10:30:33.804Z,17.80
2023-05-06T10:33:06.006Z,17.80
2023-05-06T10:35:47.263Z,18.23
2023-05-06T10:38:21.027Z,17.80
2023-05-06T10:40:52.214Z,18.13
2023-05-06T10:43:29.125Z,18.97
2023-05-06T10:46:06.029Z,17.83
2023-05-06T10:48:34.472Z,17.50
2023-05-06T10:51:23.786Z,19.03
2023-05-06T10:53:59.461Z,18.27
2023-05-06T10:56:29.826Z,18.60
2023-05-06T10:58:58.255Z,18.40
2023-05-06T11:01:28.258Z,18.77
2023-05-06T11:03:56.687Z,19.07
2023-05-06T11:06:35.779Z,18.73
2023-05-06T11:09:05.600Z,18.50
2023-05-06T11:11:52.787Z,18.53
2023-05-06T11:14:28.891Z,18.33
2023-05-06T11:16:58.647Z,18.20
2023-05-06T11:19:28.215Z,18.43
2023-05-06T11:21:58.258Z,18.27
2023-05-06T11:24:28.166Z,18.70
2023-05-06T11:26:59.850Z,17.90
2023-05-06T11:29:28.149Z,18.10
2023-05-06T11:31:56.257Z,17.60
2023-05-06T11:34:27.271Z,17.97
2023-05-06T11:37:02.346Z,18.87
2023-05-06T11:39:34.915Z,18.33
2023-05-06T11:42:09.687Z,19.00
2023-05-06T11:44:39.746Z,19.10
2023-05-06T11:47:09.694Z,18.67
2023-05-06T11:49:39.094Z,18.20
2023-05-06T11:52:08.576Z,17.90
2023-05-06T11:54:37.720Z,17.87
2023-05-06T11:57:05.896Z,18.20
2023-05-06T11:59:37.482Z,18.27
2023-05-06T12:02:07.295Z,18.87
2023-05-06T12:04:39.622Z,18.40
2023-05-06T12:07:08.694Z,18.90
2023-05-06T12:09:37.659Z,18.10
2023-05-06T12:12:06.681Z,18.43
2023-05-06T12:14:37.123Z,18.20
2023-05-06T12:17:05.907Z,17.80
2023-05-06T12:19:34.308Z,17.70
2023-05-06T12:22:19.163Z,17.73
2023-05-06T12:24:47.959Z,17.50
2023-05-06T12:27:16.375Z,17.87
2023-05-06T12:29:54.287Z,17.77
2023-05-06T12:32:22.376Z,17.90
2023-05-06T12:34:50.489Z,17.53
2023-05-06T12:37:26.347Z,18.63
2023-05-06T12:39:57.014Z,18.67
2023-05-06T12:42:27.024Z,18.07
2023-05-06T12:44:56.896Z,18.30
2023-05-06T12:47:26.889Z,17.80
2023-05-06T12:49:58.046Z,17.43
2023-05-06T12:52:28.574Z,18.33
2023-05-06T12:54:57.611Z,17.77
2023-05-06T12:57:26.175Z,17.57
2023-05-06T12:59:56.240Z,17.90
2023-05-06T13:02:26.079Z,17.17
2023-05-06T13:04:54.273Z,18.37
2023-05-06T13:07:22.565Z,17.27
2023-05-06T13:09:50.794Z,17.33
2023-05-06T13:12:19.198Z,17.43
2023-05-06T13:14:47.345Z,17.20
2023-05-06T13:17:15.739Z,18.27
2023-05-06T13:19:45.359Z,17.37
2023-05-06T13:22:13.532Z,17.10
2023-05-06T13:24:41.614Z,17.90
2023-05-06T13:27:10.130Z,17.63
2023-05-06T13:29:38.287Z,18.10
2023-05-06T13:32:08.792Z,17.70
2023-05-06T13:34:37.341Z,17.30
2023-05-06T13:37:06.961Z,17.27
2023-05-06T13:39:35.133Z,17.23
2023-05-06T13:42:06.061Z,17.53
2023-05-06T13:44:35.874Z,17.90
2023-05-06T13:47:04.089Z,17.60
2023-05-06T13:49:32.423Z,17.63
2023-05-06T13:52:00.684Z,17.70
2023-05-06T13:54:30.165Z,18.83
2023-05-06T13:56:59.028Z,17.30
2023-05-06T13:59:27.282Z,17.37
2023-05-06T14:01:57.042Z,17.70
2023-05-06T14:04:25.245Z,17.73
2023-05-06T14:06:53.619Z,18.00
2023-05-06T14:09:21.693Z,18.00
2023-05-06T14:11:51.441Z,18.10
2023-05-06T14:14:20.594Z,17.73
2023-05-06T14:16:48.932Z,18.60
2023-05-06T14:19:17.233Z,18.23
2023-05-06T14:21:45.526Z,18.20
2023-05-06T14:24:13.630Z,18.13
2023-05-06T14:26:41.790Z,18.47
2023-05-06T14:29:11.361Z,17.87
2023-05-06T14:31:39.554Z,17.47
2023-05-06T14:34:07.851Z,17.37
2023-05-06T14:36:35.931Z,17.30
2023-05-06T14:39:04.019Z,17.37
2023-05-06T14:41:32.193Z,17.40
2023-05-06T14:44:00.368Z,17.60
2023-05-06T14:46:30.015Z,17.50
2023-05-06T14:48:58.343Z,17.83
2023-05-06T14:51:26.410Z,17.60
2023-05-06T14:53:54.539Z,17.60
2023-05-06T14:56:22.665Z,17.70
2023-05-06T14:58:50.814Z,17.50
2023-05-06T15:01:18.908Z,17.73
2023-05-06T15:03:50.708Z,18.30
2023-05-06T15:06:19.259Z,17.80
2023-05-06T15:08:47.384Z,18.00
2023-05-06T15:11:15.870Z,17.70
2023-05-06T15:13:43.979Z,18.10
2023-05-06T15:16:11.972Z,17.87
2023-05-06T15:18:41.843Z,19.00
2023-05-06T15:21:13.311Z,18.30
2023-05-06T15:23:41.557Z,18.50
2023-05-06T15:26:09.706Z,17.70
2023-05-06T15:28:37.843Z,18.10
2023-05-06T15:31:06.011Z,18.20
2023-05-06T15:33:34.070Z,17.97
2023-05-06T15:36:02.159Z,17.83
2023-05-06T15:38:58.374Z,17.70
2023-05-06T15:41:30.354Z,18.10
2023-05-06T15:43:59.866Z,17.73
2023-05-06T15:46:28.941Z,17.70
2023-05-06T15:49:12.773Z,18.00
2023-05-06T15:51:45.488Z,18.23
2023-05-06T15:54:18.259Z,18.57
2023-05-06T15:56:46.644Z,17.70
2023-05-06T15:59:14.722Z,17.87
2023-05-06T16:02:24.438Z,18.10
2023-05-06T16:04:31.978Z,17.80
2023-05-06T16:07:00.381Z,18.00
2023-05-06T16:09:29.861Z,17.60
2023-05-06T16:11:57.974Z,17.80
2023-05-06T16:14:26.098Z,17.70
2023-05-06T16:16:54.034Z,17.77
2023-05-06T16:19:22.110Z,17.40
2023-05-06T16:21:50.239Z,17.20
2023-05-06T16:24:18.315Z,17.30
2023-05-06T16:26:47.770Z,17.67
2023-05-06T16:29:19.060Z,17.87
2023-05-06T16:31:47.661Z,17.77
2023-05-06T16:34:16.137Z,18.60
2023-05-06T16:36:44.660Z,17.43
2023-05-06T16:39:13.127Z,17.40
2023-05-06T16:41:41.367Z,18.00
2023-05-06T16:44:10.861Z,17.33
2023-05-06T16:46:39.225Z,17.97
2023-05-06T16:49:07.358Z,17.33
2023-05-06T16:51:35.450Z,17.73
2023-05-06T16:54:03.519Z,17.73
2023-05-06T16:56:43.951Z,18.60
2023-05-06T16:59:21.408Z,18.20
2023-05-06T17:01:50.217Z,17.70
2023-05-06T17:04:18.386Z,18.03
2023-05-06T17:06:46.572Z,17.93
2023-05-06T17:09:14.924Z,18.50
2023-05-06T17:11:43.093Z,17.73
2023-05-06T17:14:11.902Z,17.60
2023-05-06T17:16:41.611Z,17.40
2023-05-06T17:19:10.215Z,18.03
2023-05-06T17:21:38.431Z,18.40
2023-05-06T17:24:06.924Z,17.87
2023-05-06T17:26:36.044Z,18.30
2023-05-06T17:29:04.211Z,17.90
2023-05-06T17:31:32.442Z,18.40
2023-05-06T17:34:02.393Z,18.70
2023-05-06T17:36:31.216Z,19.87
2023-05-06T17:39:03.192Z,19.60
2023-05-06T17:41:31.574Z,18.37
2023-05-06T17:43:59.955Z,18.83
2023-05-06T17:46:28.586Z,18.53
2023-05-06T17:48:57.162Z,18.13
2023-05-06T17:51:27.026Z,18.90
2023-05-06T17:53:55.970Z,18.63
2023-05-06T17:56:24.416Z,19.37
2023-05-06T17:58:52.993Z,19.43
2023-05-06T18:01:21.619Z,19.37
2023-05-06T18:03:50.257Z,19.87
2023-05-06T18:06:18.756Z,20.80
2023-05-06T18:08:48.563Z,21.20
2023-05-06T18:11:17.369Z,20.60
2023-05-06T18:13:45.688Z,20.83
2023-05-06T18:16:13.929Z,20.90
2023-05-06T18:18:43.682Z,19.50
2023-05-06T18:21:12.130Z,20.60
2023-05-06T18:23:40.511Z,20.40
2023-05-06T18:26:10.467Z,20.70
2023-05-06T18:28:38.869Z,20.53
2023-05-06T18:31:08.063Z,20.23
2023-05-06T18:33:36.693Z,21.03
2023-05-06T18:36:05.294Z,20.77
2023-05-06T18:38:33.893Z,20.07
2023-05-06T18:41:03.306Z,20.87
2023-05-06T18:43:32.956Z,20.17
2023-05-06T18:46:01.424Z,20.90
2023-05-06T18:48:31.992Z,21.70
2023-05-06T18:51:14.391Z,22.07
2023-05-06T18:53:43.039Z,21.70
2023-05-06T18:56:12.000Z,21.90
2023-05-06T18:58:42.187Z,23.60
2023-05-06T19:01:11.593Z,22.57
2023-05-06T19:03:40.227Z,23.33
2023-05-06T19:06:09.376Z,23.70
2023-05-06T19:08:38.682Z,23.53
2023-05-06T19:11:07.143Z,24.67
2023-05-06T19:13:35.896Z,25.90
2023-05-06T19:16:05.634Z,24.70
2023-05-06T19:18:34.053Z,24.53
2023-05-06T19:21:02.612Z,25.37
2023-05-06T19:23:33.068Z,26.37
2023-05-06T19:26:01.604Z,27.70
2023-05-06T19:28:29.667Z,27.43
2023-05-06T19:30:58.810Z,28.30
2023-05-06T19:33:28.404Z,28.70
2023-05-06T19:35:56.449Z,28.37
2023-05-06T19:38:24.743Z,28.40
2023-05-06T19:40:52.957Z,29.60
2023-05-06T19:43:21.263Z,29.93
2023-05-06T19:45:49.465Z,29.13
2023-05-06T19:48:17.963Z,29.80
2023-05-06T19:50:47.583Z,30.47
2023-05-06T19:53:15.651Z,29.97
2023-05-06T19:55:43.742Z,30.20
2023-05-06T19:58:14.103Z,31.60
2023-05-06T20:00:42.328Z,31.87
2023-05-06T20:03:10.573Z,30.93
2023-05-06T20:05:38.851Z,32.67
2023-05-06T20:08:10.799Z,33.07
2023-05-06T20:10:39.558Z,35.47
2023-05-06T20:13:07.955Z,36.10
2023-05-06T20:15:36.489Z,36.50
2023-05-06T20:18:04.939Z,36.60
2023-05-06T20:20:35.955Z,40.67
2023-05-06T20:23:05.249Z,40.47
2023-05-06T20:25:36.897Z,42.00
2023-05-06T20:28:06.506Z,39.33
2023-05-06T20:30:34.891Z,38.83
2023-05-06T20:33:03.092Z,40.10
2023-05-06T20:35:31.437Z,40.30
2023-05-06T20:37:59.779Z,41.27
2023-05-06T20:40:28.565Z,43.23
2023-05-06T20:42:58.313Z,43.07
2023-05-06T20:45:27.737Z,44.00
2023-05-06T20:47:55.925Z,42.07
2023-05-06T20:50:24.088Z,42.90
2023-05-06T20:52:52.962Z,43.67
2023-05-06T20:55:23.384Z,43.33
2023-05-06T20:57:51.828Z,45.67
2023-05-06T21:00:22.446Z,45.37
2023-05-06T21:02:50.885Z,45.47
2023-05-06T21:05:19.110Z,48.83
2023-05-06T21:07:47.450Z,50.87
2023-05-06T21:10:15.712Z,50.40
2023-05-06T21:12:48.273Z,51.60
2023-05-06T21:15:16.516Z,54.70
2023-05-06T21:17:46.376Z,52.93
2023-05-06T21:20:14.836Z,52.80
2023-05-06T21:22:42.981Z,54.67
2023-05-06T21:25:13.246Z,55.50
2023-05-06T21:27:41.578Z,55.10
2023-05-06T21:30:11.483Z,56.13
2023-05-06T21:32:39.677Z,58.03
2023-05-06T21:35:10.269Z,61.33
2023-05-06T21:37:38.559Z,64.47
2023-05-06T21:40:07.612Z,64.33
2023-05-06T21:42:35.948Z,65.20
2023-05-06T21:45:04.149Z,66.77
2023-05-06T21:47:32.398Z,68.60
2023-05-06T21:50:00.645Z,71.53
2023-05-06T21:52:30.189Z,69.90
2023-05-06T21:55:00.489Z,71.43
2023-05-06T21:57:28.633Z,69.37
2023-05-06T21:59:56.813Z,68.53
2023-05-06T22:02:25.104Z,68.60
2023-05-06T22:04:53.370Z,66.73
2023-05-06T22:07:21.737Z,66.23
2023-05-06T22:09:52.207Z,67.10
2023-05-06T22:12:20.381Z,70.17
2023-05-06T22:14:48.534Z,71.07
2023-05-06T22:17:16.763Z,70.00
2023-05-06T22:19:44.859Z,68.87
2023-05-06T22:22:13.448Z,67.73
2023-05-06T22:24:41.466Z,66.57
2023-05-06T22:27:10.897Z,68.20
2023-05-06T22:29:38.969Z,70.07
2023-05-06T22:32:07.485Z,67.60
2023-05-06T22:34:35.735Z,63.63
2023-05-06T22:37:09.461Z,61.50
2023-05-06T22:39:37.616Z,59.70
2023-05-06T22:42:05.882Z,61.90
2023-05-06T22:44:35.432Z,63.03
2023-05-06T22:47:03.628Z,66.67
2023-05-06T22:49:32.836Z,69.63
2023-05-06T22:52:00.942Z,70.10
2023-05-06T22:54:28.994Z,69.03
2023-05-06T22:56:57.081Z,67.00
2023-05-06T22:59:26.354Z,65.77
2023-05-06T23:01:56.046Z,65.47
2023-05-06T23:04:24.326Z,65.17
2023-05-06T23:06:52.487Z,68.07
2023-05-06T23:09:20.656Z,68.73
2023-05-06T23:11:48.772Z,72.03
2023-05-06T23:14:17.348Z,74.67
2023-05-06T23:16:45.509Z,74.90
2023-05-06T23:19:15.051Z,76.50
2023-05-06T23:21:43.948Z,77.40
2023-05-06T23:24:12.782Z,77.27
2023-05-06T23:26:40.990Z,79.57
2023-05-06T23:29:09.128Z,80.63
2023-05-06T23:31:38.155Z,82.40
2023-05-06T23:34:06.360Z,83.47
2023-05-06T23:36:35.995Z,84.50
2023-05-06T23:39:04.215Z,83.40
2023-05-06T23:41:32.296Z,83.80
2023-05-06T23:44:00.474Z,83.97
2023-05-06T23:46:28.611Z,87.23
2023-05-06T23:48:56.741Z,85.40
2023-05-06T23:51:24.885Z,81.57
2023-05-06T23:53:54.387Z,81.13
2023-05-06T23:56:22.499Z,83.63
2023-05-06T23:58:50.576Z,85.77
